Time;durP1;ratioP1;P1;durP2;ratioP2;P2;SDS_P1;SDS_P2;PMS_P1;PMS_P2;Temp;Humidity;BMP_temperature;BMP_pressure;BME280_temperature;BME280_humidity;BME280_pressure;Samples;Min_cycle;Max_cycle;Signal;HPM_P1;HPM_P2
2023/04/06 00:02:05;;;;;;;18.80;14.85;;;2.40;88.20;;;;;;5055092;28;20431;-46
2023/04/06 00:04:30;;;;;;;19.60;15.73;;;2.40;88.30;;;;;;5055153;28;20037;-47
2023/04/06 00:06:59;;;;;;;20.60;16.25;;;2.40;88.80;;;;;;5055042;28;20029;-45
2023/04/06 00:09:27;;;;;;;19.15;16.17;;;2.40;88.80;;;;;;5054539;28;20053;-45
2023/04/06 00:11:54;;;;;;;20.25;16.20;;;2.40;89.00;;;;;;5054965;28;20418;-45
2023/04/06 00:14:23;;;;;;;19.88;15.90;;;2.40;89.00;;;;;;5054621;28;20515;-47
2023/04/06 00:16:50;;;;;;;19.73;15.88;;;2.50;89.00;;;;;;5054852;28;20354;-47
2023/04/06 00:19:18;;;;;;;19.85;15.77;;;2.40;88.90;;;;;;5054414;28;20029;-45
2023/04/06 00:21:45;;;;;;;19.25;14.82;;;2.40;89.00;;;;;;5053628;28;20025;-47
2023/04/06 00:24:13;;;;;;;21.65;14.48;;;2.40;89.10;;;;;;5054887;28;20140;-47
2023/04/06 00:26:42;;;;;;;20.63;15.75;;;2.40;89.10;;;;;;5055279;28;20032;-48
2023/04/06 00:29:09;;;;;;;19.50;14.80;;;2.50;89.20;;;;;;5036736;28;20400;-46
2023/04/06 00:31:37;;;;;;;22.45;14.93;;;2.50;89.20;;;;;;5053893;28;20103;-48
2023/04/06 00:34:07;;;;;;;17.75;14.73;;;2.50;89.20;;;;;;5053333;28;20505;-48
2023/04/06 00:36:32;;;;;;;22.92;14.77;;;2.50;89.30;;;;;;5054214;28;20025;-47
2023/04/06 00:38:58;;;;;;;18.17;15.65;;;2.50;89.30;;;;;;5072744;28;20156;-45
2023/04/06 00:41:26;;;;;;;19.65;14.93;;;2.50;89.30;;;;;;5074198;28;20043;-46
2023/04/06 00:43:53;;;;;;;21.52;15.23;;;2.50;89.40;;;;;;5074082;28;20061;-46
2023/04/06 00:46:20;;;;;;;20.33;14.02;;;2.50;89.40;;;;;;5069322;28;20025;-47
2023/04/06 00:48:49;;;;;;;18.42;15.02;;;2.40;89.30;;;;;;5054392;28;20529;-46
2023/04/06 00:51:16;;;;;;;19.77;14.90;;;2.40;89.20;;;;;;5054040;28;20033;-46
2023/04/06 00:53:45;;;;;;;18.40;14.18;;;2.40;89.20;;;;;;5053173;28;20021;-51
2023/04/06 00:56:12;;;;;;;;;;;2.40;89.20;;;;;;5054604;28;20028;-45
2023/04/06 00:58:40;;;;;;;18.23;14.10;;;2.30;89.20;;;;;;5052919;28;19940;-45
2023/04/06 01:01:07;;;;;;;19.05;14.13;;;2.30;89.30;;;;;;5053801;28;20025;-46
2023/04/06 01:03:36;;;;;;;19.83;15.18;;;2.30;89.30;;;;;;5053683;28;20405;-48
2023/04/06 01:06:01;;;;;;;19.52;15.40;;;2.30;89.40;;;;;;5052555;28;20040;-50
2023/04/06 01:08:28;;;;;;;18.58;14.48;;;2.30;89.40;;;;;;5048894;28;20049;-48
2023/04/06 01:11:05;;;;;;;21.90;15.20;;;2.20;89.40;;;;;;5002789;28;20052;-47
2023/04/06 01:13:30;;;;;;;19.45;14.95;;;2.30;89.70;;;;;;5033866;28;20506;-49
2023/04/06 01:15:57;;;;;;;18.08;14.23;;;2.30;89.70;;;;;;5033510;28;20033;-47
2023/04/06 01:18:27;;;;;;;23.55;14.88;;;2.30;89.60;;;;;;5033544;28;20092;-47
2023/04/06 01:20:54;;;;;;;19.77;15.00;;;2.30;89.50;;;;;;5033546;28;20128;-46
2023/04/06 01:23:21;;;;;;;22.30;15.88;;;2.20;89.50;;;;;;5033659;28;20068;-48
2023/04/06 01:25:48;;;;;;;20.00;16.38;;;2.20;89.40;;;;;;5032813;28;20025;-49
2023/04/06 01:28:17;;;;;;;18.77;14.77;;;2.20;89.50;;;;;;5045829;28;20035;-47
2023/04/06 01:30:47;;;;;;;20.63;16.20;;;2.20;89.50;;;;;;5044292;28;20052;-48
2023/04/06 01:33:14;;;;;;;20.77;15.93;;;2.20;89.50;;;;;;5032913;28;20029;-46
2023/04/06 01:35:40;;;;;;;22.88;16.80;;;2.20;89.50;;;;;;5033330;28;20036;-45
2023/04/06 01:38:08;;;;;;;23.98;16.85;;;2.10;89.40;;;;;;5033485;28;20479;-50
2023/04/06 01:40:38;;;;;;;22.75;16.13;;;2.10;89.50;;;;;;5033001;28;20480;-47
2023/04/06 01:43:04;;;;;;;21.80;16.58;;;2.10;89.50;;;;;;5033106;28;20052;-48
2023/04/06 01:45:31;;;;;;;21.30;15.88;;;2.10;89.40;;;;;;5033228;28;20029;-50
2023/04/06 01:47:58;;;;;;;20.23;15.73;;;2.00;89.40;;;;;;5033252;28;20316;-49
2023/04/06 01:50:26;;;;;;;22.05;14.77;;;2.00;89.40;;;;;;5043874;28;20343;-49
2023/04/06 01:52:53;;;;;;;20.15;15.55;;;2.00;89.30;;;;;;5053063;28;20075;-45
2023/04/06 01:55:21;;;;;;;19.88;16.23;;;2.00;89.40;;;;;;5033968;28;20463;-47
2023/04/06 01:57:47;;;;;;;22.40;16.80;;;2.00;89.40;;;;;;5052576;28;20029;-49
2023/04/06 02:00:17;;;;;;;23.15;16.27;;;1.90;89.40;;;;;;5052725;28;20053;-46
2023/04/06 02:02:48;;;;;;;20.48;15.18;;;1.90;89.50;;;;;;5047506;28;20080;-47
2023/04/06 02:05:16;;;;;;;20.65;15.52;;;1.90;89.50;;;;;;5032706;28;20018;-46
2023/04/06 02:07:43;;;;;;;21.27;16.63;;;1.90;89.50;;;;;;5032736;28;20044;-48
2023/04/06 02:10:13;;;;;;;20.85;15.68;;;1.90;89.50;;;;;;5050921;28;20075;-46
2023/04/06 02:12:41;;;;;;;21.98;15.95;;;1.90;89.50;;;;;;5035445;28;20025;-48
2023/04/06 02:15:09;;;;;;;22.17;17.70;;;1.80;89.50;;;;;;5035355;28;20083;-48
2023/04/06 02:17:36;;;;;;;23.48;16.08;;;1.80;89.50;;;;;;5052602;28;20029;-47
2023/04/06 02:20:02;;;;;;;22.77;16.92;;;1.80;89.50;;;;;;5042788;28;20055;-46
2023/04/06 02:22:29;;;;;;;25.27;17.15;;;1.70;89.60;;;;;;5052952;28;20419;-49
2023/04/06 02:24:57;;;;;;;25.00;19.05;;;1.80;89.60;;;;;;5052631;28;20646;-48
2023/04/06 02:27:25;;;;;;;24.05;17.30;;;1.70;89.70;;;;;;5052663;28;20025;-49
2023/04/06 02:29:53;;;;;;;19.50;16.48;;;1.70;89.60;;;;;;5052524;28;20044;-47
2023/04/06 02:32:19;;;;;;;23.02;17.45;;;1.70;89.60;;;;;;5052565;28;20028;-47
2023/04/06 02:34:49;;;;;;;24.85;17.98;;;1.70;89.60;;;;;;5052482;28;20021;-47
2023/04/06 02:37:16;;;;;;;23.35;16.23;;;1.70;89.70;;;;;;5053012;28;20450;-48
2023/04/06 02:39:43;;;;;;;21.15;15.77;;;1.70;89.70;;;;;;5076413;28;20037;-46
2023/04/06 02:42:11;;;;;;;21.90;16.52;;;1.70;89.60;;;;;;5063889;28;20121;-48
2023/04/06 02:44:37;;;;;;;22.38;16.17;;;1.60;89.60;;;;;;5038872;28;20029;-46
2023/04/06 02:47:05;;;;;;;23.20;19.67;;;1.60;89.70;;;;;;5056461;28;20032;-46
2023/04/06 02:49:32;;;;;;;25.23;18.20;;;1.60;89.70;;;;;;5056275;28;20087;-46
2023/04/06 02:51:59;;;;;;;25.02;18.65;;;1.60;89.60;;;;;;5056182;28;20028;-50
2023/04/06 02:54:28;;;;;;;22.55;17.55;;;1.60;89.50;;;;;;5065368;28;20021;-47
2023/04/06 02:56:55;;;;;;;25.55;18.50;;;1.60;89.60;;;;;;5075940;28;20020;-45
2023/04/06 02:59:20;;;;;;;22.40;17.65;;;1.60;89.70;;;;;;5067658;28;20080;-45
2023/04/06 03:01:48;;;;;;;24.25;18.42;;;1.60;89.80;;;;;;5056009;28;20036;-46
2023/04/06 03:04:14;;;;;;;25.52;17.80;;;1.50;89.70;;;;;;5055957;28;20029;-48
2023/04/06 03:06:41;;;;;;;22.00;17.25;;;1.60;89.90;;;;;;5055904;28;20091;-46
2023/04/06 03:09:09;;;;;;;23.50;18.55;;;1.60;89.90;;;;;;5071288;28;20056;-46
2023/04/06 03:11:39;;;;;;;24.45;19.73;;;1.60;89.90;;;;;;5064592;28;20064;-46
2023/04/06 03:14:10;;;;;;;26.83;20.00;;;1.60;89.90;;;;;;5055941;28;20461;-46
2023/04/06 03:16:38;;;;;;;23.45;18.52;;;1.50;89.90;;;;;;5055456;28;20033;-46
2023/04/06 03:19:05;;;;;;;28.08;19.75;;;1.60;90.00;;;;;;5055658;28;20028;-49
2023/04/06 03:21:30;;;;;;;23.60;19.23;;;1.60;90.00;;;;;;5055771;28;20148;-48
2023/04/06 03:24:01;;;;;;;23.90;19.02;;;1.50;89.90;;;;;;5066715;28;20051;-46
2023/04/06 03:26:31;;;;;;;25.67;19.58;;;1.50;90.00;;;;;;5047439;28;20522;-45
2023/04/06 03:29:02;;;;;;;25.65;19.52;;;1.60;89.90;;;;;;5055830;28;20111;-45
2023/04/06 03:31:30;;;;;;;25.33;18.85;;;1.50;89.90;;;;;;5047518;28;20036;-45
2023/04/06 03:33:57;;;;;;;22.55;19.30;;;1.50;89.90;;;;;;5037912;28;20031;-48
2023/04/06 03:36:25;;;;;;;23.27;18.40;;;1.50;89.90;;;;;;5055583;28;20032;-48
2023/04/06 03:38:53;;;;;;;28.75;20.25;;;1.50;89.90;;;;;;5069486;28;20633;-46
2023/04/06 03:41:21;;;;;;;25.90;19.63;;;1.50;89.90;;;;;;5037812;28;20124;-46
2023/04/06 03:43:54;;;;;;;24.98;19.50;;;1.50;90.00;;;;;;5038246;28;20075;-48
2023/04/06 03:46:21;;;;;;;29.50;21.45;;;1.50;90.00;;;;;;5037598;28;20035;-46
2023/04/06 03:48:49;;;;;;;27.63;21.83;;;1.50;90.20;;;;;;5056705;28;20025;-47
2023/04/06 03:51:17;;;;;;;27.60;21.88;;;1.50;90.40;;;;;;5054820;28;20031;-45
2023/04/06 03:53:42;;;;;;;27.50;20.58;;;1.50;90.50;;;;;;5054938;28;20030;-48
2023/04/06 03:56:09;;;;;;;28.15;21.30;;;1.50;90.60;;;;;;5062546;28;20040;-46
2023/04/06 03:58:37;;;;;;;31.40;20.90;;;1.50;90.50;;;;;;5064818;28;20459;-47
2023/04/06 04:01:06;;;;;;;25.08;19.98;;;1.50;90.50;;;;;;5055085;28;20060;-48
2023/04/06 04:03:35;;;;;;;24.23;20.23;;;1.50;90.40;;;;;;5054242;28;20029;-46
2023/04/06 04:06:03;;;;;;;27.85;20.65;;;1.50;90.30;;;;;;5054938;28;20405;-47
2023/04/06 04:08:30;;;;;;;28.60;21.27;;;1.50;90.40;;;;;;5037132;28;20045;-46
2023/04/06 04:10:57;;;;;;;25.63;21.80;;;1.40;90.40;;;;;;5064993;28;20068;-46
2023/04/06 04:13:23;;;;;;;27.65;20.38;;;1.40;90.20;;;;;;5074757;28;20082;-46
2023/04/06 04:15:52;;;;;;;27.25;21.92;;;1.40;90.10;;;;;;5074851;28;20025;-46
2023/04/06 04:18:21;;;;;;;25.92;20.50;;;1.30;90.20;;;;;;5074756;28;20025;-46
2023/04/06 04:20:49;;;;;;;25.38;20.25;;;1.30;90.20;;;;;;5065844;28;20029;-45
2023/04/06 04:23:16;;;;;;;29.65;22.50;;;1.30;90.20;;;;;;5054818;28;20350;-48
2023/04/06 04:25:43;;;;;;;33.47;23.83;;;1.30;90.20;;;;;;5036715;28;20109;-47
2023/04/06 04:28:09;;;;;;;27.45;22.40;;;1.30;90.20;;;;;;5032279;28;20353;-51
2023/04/06 04:30:35;;;;;;;30.08;21.80;;;1.30;90.20;;;;;;5074217;28;20028;-46
2023/04/06 04:33:02;;;;;;;27.85;22.60;;;1.30;90.20;;;;;;5057051;28;20039;-46
2023/04/06 04:35:40;;;;;;;33.00;24.33;;;1.30;90.10;;;;;;5071186;28;20056;-45
2023/04/06 04:38:10;;;;;;;33.97;24.27;;;1.30;90.20;;;;;;5054871;28;20458;-46
2023/04/06 04:40:37;;;;;;;35.35;25.92;;;1.20;90.30;;;;;;5070732;28;20028;-44
2023/04/06 04:43:03;;;;;;;30.75;23.63;;;1.30;90.20;;;;;;5073420;28;20453;-46
2023/04/06 04:45:33;;;;;;;34.95;24.88;;;1.30;90.20;;;;;;5056140;28;20051;-45
2023/04/06 04:48:04;;;;;;;32.08;23.63;;;1.20;90.20;;;;;;5068682;28;20038;-49
2023/04/06 04:50:31;;;;;;;29.40;22.77;;;1.20;90.10;;;;;;5073662;28;20036;-45
2023/04/06 04:53:01;;;;;;;29.40;23.55;;;1.20;90.00;;;;;;5073224;28;20038;-50
2023/04/06 04:55:29;;;;;;;29.88;23.88;;;1.20;90.00;;;;;;5070560;28;20025;-50
2023/04/06 04:57:57;;;;;;;31.07;24.73;;;1.20;90.10;;;;;;5070511;28;20035;-47
2023/04/06 05:00:23;;;;;;;34.88;24.77;;;1.20;90.10;;;;;;5071926;28;20349;-45
2023/04/06 05:02:50;;;;;;;28.80;22.90;;;1.20;90.20;;;;;;5071846;28;20060;-46
2023/04/06 05:05:17;;;;;;;32.30;25.10;;;1.20;90.20;;;;;;5069105;28;20150;-48
2023/04/06 05:07:44;;;;;;;32.63;23.35;;;1.20;90.10;;;;;;5073490;28;20104;-46
2023/04/06 05:10:15;;;;;;;30.63;23.73;;;1.20;90.10;;;;;;5073044;28;20048;-51
2023/04/06 05:12:42;;;;;;;31.52;23.65;;;1.30;90.10;;;;;;5055584;28;20041;-47
2023/04/06 05:15:10;;;;;;;30.80;24.65;;;1.30;90.00;;;;;;5062152;28;20095;-51
2023/04/06 05:17:37;;;;;;;34.05;24.70;;;1.30;90.10;;;;;;5073350;28;20158;-45
2023/04/06 05:20:10;;;;;;;33.70;24.25;;;1.30;90.00;;;;;;5054058;28;20025;-48
2023/04/06 05:22:37;;;;;;;33.58;24.52;;;1.30;90.00;;;;;;5055283;28;20071;-48
2023/04/06 05:25:05;;;;;;;34.15;25.23;;;1.40;90.10;;;;;;5071248;28;20382;-48
2023/04/06 05:27:34;;;;;;;28.80;23.13;;;1.40;90.10;;;;;;5073016;28;20059;-49
2023/04/06 05:30:01;;;;;;;;;;;1.40;90.00;;;;;;5072613;28;20111;-48
2023/04/06 05:32:29;;;;;;;34.22;23.48;;;1.40;90.00;;;;;;5071202;28;20054;-44
2023/04/06 05:34:55;;;;;;;28.83;24.48;;;1.50;90.10;;;;;;5065146;28;20089;-47
2023/04/06 05:37:22;;;;;;;30.27;22.60;;;1.50;90.30;;;;;;5071580;28;20115;-44
2023/04/06 05:39:50;;;;;;;28.13;22.95;;;1.70;90.20;;;;;;5073156;28;20803;-47
2023/04/06 05:42:20;;;;;;;30.38;22.83;;;1.70;90.10;;;;;;5070577;28;20111;-44
2023/04/06 05:44:47;;;;;;;35.00;23.63;;;1.80;90.10;;;;;;5055959;28;20037;-46
2023/04/06 05:47:14;;;;;;;32.67;23.55;;;1.80;89.90;;;;;;5070489;28;20036;-45
2023/04/06 05:49:43;;;;;;;29.83;23.10;;;1.80;90.00;;;;;;5082465;28;20115;-46
2023/04/06 05:52:10;;;;;;;29.03;20.43;;;1.90;90.10;;;;;;5092513;28;20085;-45
2023/04/06 05:54:36;;;;;;;27.70;21.50;;;1.90;90.00;;;;;;5070995;28;20035;-46
2023/04/06 05:57:05;;;;;;;25.20;19.75;;;1.90;90.00;;;;;;5070914;28;20027;-46
2023/04/06 05:59:31;;;;;;;30.65;23.52;;;2.00;90.00;;;;;;5073245;28;20036;-47
2023/04/06 06:01:57;;;;;;;28.42;23.23;;;2.00;90.00;;;;;;5074533;28;20074;-48
2023/04/06 06:04:22;;;;;;;24.80;21.02;;;2.10;90.00;;;;;;5075006;28;20453;-44
2023/04/06 06:06:51;;;;;;;27.38;21.38;;;2.10;90.20;;;;;;5090200;28;20026;-47
2023/04/06 06:09:18;;;;;;;31.63;21.90;;;2.20;90.20;;;;;;5073871;28;20058;-45
2023/04/06 06:11:46;;;;;;;27.30;21.80;;;2.30;90.30;;;;;;5074237;28;20277;-43
2023/04/06 06:14:16;;;;;;;28.85;22.05;;;2.40;90.30;;;;;;5098252;28;20024;-45
2023/04/06 06:16:44;;;;;;;26.38;21.02;;;2.50;90.10;;;;;;5099581;28;20027;-42
2023/04/06 06:19:11;;;;;;;33.83;22.63;;;2.70;90.10;;;;;;5099233;28;20047;-44
2023/04/06 06:21:39;;;;;;;28.40;21.15;;;2.80;89.90;;;;;;5080434;28;20437;-44
2023/04/06 06:24:07;;;;;;;27.40;21.33;;;2.90;89.70;;;;;;5061285;28;20029;-45
2023/04/06 06:26:39;;;;;;;23.08;19.92;;;3.00;89.50;;;;;;5077115;28;20024;-42
2023/04/06 06:29:07;;;;;;;24.77;21.00;;;3.20;88.90;;;;;;5080848;28;20039;-45
2023/04/06 06:31:35;;;;;;;24.88;20.00;;;3.30;88.40;;;;;;5094945;28;20056;-44
2023/04/06 06:34:01;;;;;;;26.15;18.73;;;3.40;87.70;;;;;;5085221;28;20028;-44
2023/04/06 06:36:28;;;;;;;27.25;18.77;;;3.60;87.30;;;;;;5079002;28;20036;-42
2023/04/06 06:38:55;;;;;;;24.48;18.70;;;3.70;86.90;;;;;;5089678;28;20032;-46
2023/04/06 06:41:29;;;;;;;23.35;17.13;;;3.90;86.00;;;;;;5099213;28;20028;-44
2023/04/06 06:43:58;;;;;;;19.95;15.98;;;4.00;85.50;;;;;;5098201;28;20035;-43
2023/04/06 06:46:25;;;;;;;21.23;16.35;;;4.20;85.50;;;;;;5080555;28;20464;-47
2023/04/06 06:48:51;;;;;;;20.17;16.58;;;4.20;84.60;;;;;;5097200;28;20050;-46
2023/04/06 06:51:18;;;;;;;18.95;15.20;;;4.40;84.10;;;;;;5098663;28;20490;-43
2023/04/06 06:53:50;;;;;;;18.75;14.80;;;4.50;83.40;;;;;;5076500;28;20052;-45
2023/04/06 06:56:17;;;;;;;18.33;14.63;;;4.70;83.00;;;;;;5068546;28;20029;-49
2023/04/06 06:58:45;;;;;;;16.85;13.55;;;4.90;81.90;;;;;;5079946;28;20050;-44
2023/04/06 07:01:12;;;;;;;16.38;13.63;;;5.00;80.80;;;;;;5090877;28;20034;-43
2023/04/06 07:03:40;;;;;;;19.08;13.68;;;5.20;80.90;;;;;;5081696;28;20032;-44
2023/04/06 07:06:08;;;;;;;15.07;12.82;;;5.30;79.10;;;;;;5091680;28;20097;-43
2023/04/06 07:08:34;;;;;;;16.58;12.23;;;5.40;77.80;;;;;;5076235;28;20055;-42
2023/04/06 07:11:03;;;;;;;12.07;10.60;;;5.50;76.60;;;;;;5076852;28;20035;-44
2023/04/06 07:13:30;;;;;;;13.32;10.75;;;5.70;75.80;;;;;;5093340;28;20107;-43
2023/04/06 07:15:57;;;;;;;13.65;10.68;;;5.70;73.70;;;;;;5080548;28;20036;-43
2023/04/06 07:18:25;;;;;;;15.38;9.25;;;5.90;74.10;;;;;;5096958;28;20046;-45
2023/04/06 07:20:51;;;;;;;15.32;11.07;;;6.10;74.70;;;;;;5097584;28;20476;-44
2023/04/06 07:23:19;;;;;;;11.77;9.48;;;6.40;73.80;;;;;;5094452;28;20048;-46
2023/04/06 07:25:50;;;;;;;15.25;9.55;;;6.60;71.60;;;;;;5093355;28;20422;-43
2023/04/06 07:28:19;;;;;;;12.52;9.98;;;6.90;70.40;;;;;;5091215;28;20103;-43
2023/04/06 07:30:47;;;;;;;11.88;9.10;;;7.10;69.40;;;;;;5087800;28;20040;-45
2023/04/06 07:33:17;;;;;;;12.88;10.48;;;7.20;68.70;;;;;;5075978;28;20036;-44
2023/04/06 07:35:45;;;;;;;11.20;8.70;;;7.30;68.10;;;;;;5094789;28;20027;-48
2023/04/06 07:38:10;;;;;;;11.77;8.40;;;7.50;66.70;;;;;;5091494;28;20032;-47
2023/04/06 07:40:41;;;;;;;10.30;7.50;;;7.90;65.50;;;;;;5068069;28;20545;-43
2023/04/06 07:43:09;;;;;;;9.40;7.03;;;8.20;62.70;;;;;;5094202;28;20020;-47
2023/04/06 07:45:37;;;;;;;10.32;7.68;;;8.50;59.60;;;;;;5077836;28;20042;-46
2023/04/06 07:48:04;;;;;;;10.25;7.43;;;9.00;59.90;;;;;;5076007;28;20024;-46
2023/04/06 07:50:31;;;;;;;8.82;6.68;;;9.40;58.10;;;;;;5072574;28;20028;-52
2023/04/06 07:53:00;;;;;;;7.45;6.45;;;9.70;56.10;;;;;;5076472;28;20028;-45
2023/04/06 07:55:27;;;;;;;11.13;7.15;;;9.90;54.50;;;;;;5094051;28;20453;-45
2023/04/06 07:57:56;;;;;;;8.70;7.20;;;9.90;55.60;;;;;;5079617;28;20036;-44
2023/04/06 08:00:25;;;;;;;9.35;8.32;;;10.30;51.30;;;;;;5094203;28;20043;-45
2023/04/06 08:02:54;;;;;;;8.68;7.65;;;10.40;51.00;;;;;;5086466;28;20039;-48
2023/04/06 08:05:20;;;;;;;10.85;7.28;;;10.60;51.50;;;;;;5093156;28;20097;-45
2023/04/06 08:07:49;;;;;;;9.15;6.75;;;10.90;50.50;;;;;;5093672;28;20060;-48
2023/04/06 08:10:15;;;;;;;10.10;6.97;;;11.10;48.80;;;;;;5093590;28;20048;-45
2023/04/06 08:12:43;;;;;;;8.43;7.25;;;11.40;49.20;;;;;;5076034;28;20114;-48
2023/04/06 08:15:10;;;;;;;9.27;6.47;;;11.70;48.10;;;;;;5087292;28;20428;-44
2023/04/06 08:17:37;;;;;;;8.63;7.43;;;12.10;48.70;;;;;;5092678;28;20039;-48
2023/04/06 08:20:09;;;;;;;7.95;6.53;;;12.30;47.80;;;;;;5093305;28;20063;-46
2023/04/06 08:22:37;;;;;;;9.35;6.75;;;12.50;47.70;;;;;;5091488;28;20034;-48
2023/04/06 08:25:04;;;;;;;9.48;7.50;;;12.80;45.30;;;;;;5090386;28;20449;-50
2023/04/06 08:27:32;;;;;;;10.75;6.65;;;12.60;44.30;;;;;;5092688;28;20188;-43
2023/04/06 08:29:58;;;;;;;9.63;6.88;;;12.90;43.60;;;;;;5078911;28;20028;-44
2023/04/06 08:32:27;;;;;;;9.63;7.25;;;13.20;43.20;;;;;;5073001;28;20042;-44
2023/04/06 08:34:56;;;;;;;9.73;7.75;;;12.90;43.10;;;;;;5091963;28;20035;-46
2023/04/06 08:37:22;;;;;;;9.82;7.20;;;13.00;41.60;;;;;;5093455;28;20020;-47
2023/04/06 08:39:48;;;;;;;12.70;7.15;;;12.80;41.40;;;;;;5041483;28;20032;-49
2023/04/06 08:42:26;;;;;;;10.60;7.18;;;12.20;42.00;;;;;;5070854;28;20484;-49
2023/04/06 08:44:55;;;;;;;11.93;7.22;;;12.30;43.20;;;;;;5069610;28;20036;-48
2023/04/06 08:47:22;;;;;;;9.70;7.70;;;12.40;43.50;;;;;;5072219;28;20048;-44
2023/04/06 08:49:51;;;;;;;11.38;6.80;;;12.30;44.70;;;;;;5065651;28;20111;-44
2023/04/06 08:52:20;;;;;;;7.38;6.65;;;12.40;44.20;;;;;;5093570;28;20016;-47
2023/04/06 08:54:48;;;;;;;8.57;6.97;;;12.60;43.60;;;;;;5083424;28;20461;-46
2023/04/06 08:57:16;;;;;;;10.48;6.88;;;12.60;44.60;;;;;;5075380;28;20039;-49
2023/04/06 08:59:44;;;;;;;9.88;7.25;;;12.50;43.80;;;;;;5074625;28;20055;-45
2023/04/06 09:02:18;;;;;;;9.20;7.70;;;12.70;43.40;;;;;;5088813;28;20115;-45
2023/04/06 09:04:52;;;;;;;9.27;6.97;;;12.70;45.90;;;;;;5068849;28;20067;-45
2023/04/06 09:07:23;;;;;;;9.73;6.93;;;13.00;44.80;;;;;;5073297;28;20040;-50
2023/04/06 09:09:52;;;;;;;9.48;7.20;;;13.10;42.70;;;;;;5092622;28;20052;-45
2023/04/06 09:12:40;;;;;;;8.82;6.75;;;13.00;44.10;;;;;;5083362;28;20024;-45
2023/04/06 09:15:26;;;;;;;9.98;7.32;;;13.10;43.30;;;;;;5092582;28;20353;-48
2023/04/06 09:17:54;;;;;;;7.97;6.90;;;13.40;46.20;;;;;;5075871;28;20024;-45
2023/04/06 09:20:35;;;;;;;10.35;8.07;;;13.50;42.80;;;;;;5090523;28;20040;-44
2023/04/06 09:23:01;;;;;;;7.65;6.47;;;13.50;43.20;;;;;;5092523;28;20488;-45
2023/04/06 09:25:28;;;;;;;11.73;8.23;;;13.40;41.00;;;;;;5070179;28;20041;-45
2023/04/06 09:28:06;;;;;;;8.23;6.35;;;13.40;42.70;;;;;;5071447;28;20080;-45
2023/04/06 09:30:38;;;;;;;9.50;6.65;;;13.70;43.70;;;;;;5079890;28;20085;-45
2023/04/06 09:33:07;;;;;;;8.00;6.63;;;13.80;44.60;;;;;;5086118;28;20085;-47
2023/04/06 09:35:35;;;;;;;10.82;6.75;;;14.20;42.60;;;;;;5074095;28;20016;-50
2023/04/06 09:38:12;;;;;;;9.50;6.88;;;14.10;40.80;;;;;;5092356;28;20034;-49
2023/04/06 09:40:50;;;;;;;10.45;7.18;;;13.90;42.30;;;;;;5081526;28;20036;-45
2023/04/06 09:43:30;;;;;;;9.95;7.03;;;14.00;41.00;;;;;;5087713;28;20107;-47
2023/04/06 09:45:58;;;;;;;8.93;6.72;;;13.80;43.30;;;;;;5049171;28;20040;-47
2023/04/06 09:48:28;;;;;;;8.70;6.57;;;14.10;41.00;;;;;;5063802;28;20032;-46
2023/04/06 09:51:04;;;;;;;9.50;7.80;;;13.70;41.10;;;;;;5063982;28;20032;-46
2023/04/06 09:53:33;;;;;;;10.05;7.45;;;13.50;41.10;;;;;;5081350;28;20036;-46
2023/04/06 09:56:02;;;;;;;9.30;7.82;;;13.40;44.90;;;;;;5089679;28;20552;-45
2023/04/06 09:58:37;;;;;;;9.93;7.00;;;13.40;42.60;;;;;;5056812;28;20032;-45
2023/04/06 10:01:12;;;;;;;11.23;7.68;;;13.70;41.40;;;;;;5072952;28;20085;-47
2023/04/06 10:03:54;;;;;;;9.27;7.05;;;13.50;41.90;;;;;;5054487;28;20519;-45
2023/04/06 10:06:26;;;;;;;10.50;7.43;;;13.80;41.20;;;;;;5073640;28;20062;-47
2023/04/06 10:08:55;;;;;;;10.70;7.35;;;13.80;40.20;;;;;;5073498;28;20844;-45
2023/04/06 10:11:22;;;;;;;11.30;8.73;;;13.50;41.10;;;;;;5072667;28;20220;-45
2023/04/06 10:13:48;;;;;;;8.45;7.30;;;13.10;42.40;;;;;;5057310;28;20293;-46
2023/04/06 10:16:16;;;;;;;9.90;7.30;;;13.10;42.30;;;;;;5069566;28;20101;-46
2023/04/06 10:18:51;;;;;;;15.95;7.95;;;13.00;42.40;;;;;;5074117;28;20059;-46
2023/04/06 10:21:32;;;;;;;12.07;8.55;;;13.40;43.50;;;;;;5074446;28;20032;-46
2023/04/06 10:24:10;;;;;;;9.50;7.57;;;13.60;42.20;;;;;;5073684;28;20046;-47
2023/04/06 10:26:39;;;;;;;9.63;7.88;;;13.30;43.90;;;;;;5091858;28;20024;-45
2023/04/06 10:29:06;;;;;;;11.18;8.18;;;13.50;43.20;;;;;;5084999;28;20503;-46
2023/04/06 10:31:39;;;;;;;9.27;8.38;;;13.80;42.50;;;;;;5073137;28;20036;-45
2023/04/06 10:34:05;;;;;;;12.40;8.63;;;13.70;43.00;;;;;;5073780;28;20420;-46
2023/04/06 10:36:37;;;;;;;9.82;7.50;;;13.80;42.80;;;;;;5071574;28;20036;-45
2023/04/06 10:39:06;;;;;;;11.32;7.72;;;14.00;41.70;;;;;;5087411;28;20051;-46
2023/04/06 10:41:45;;;;;;;8.60;7.70;;;14.00;42.40;;;;;;5072701;28;20097;-45
2023/04/06 10:44:22;;;;;;;12.13;8.63;;;13.90;42.00;;;;;;5091326;28;20042;-45
2023/04/06 10:47:00;;;;;;;10.52;8.23;;;14.00;41.40;;;;;;5079278;28;20043;-48
2023/04/06 10:49:29;;;;;;;11.30;8.63;;;14.10;43.10;;;;;;5075329;28;20039;-49
2023/04/06 10:51:56;;;;;;;11.05;8.85;;;14.20;41.60;;;;;;5073089;28;20032;-47
2023/04/06 10:54:25;;;;;;;11.90;7.97;;;14.40;40.30;;;;;;5091214;28;20127;-45
2023/04/06 10:56:53;;;;;;;10.77;8.93;;;14.10;40.10;;;;;;5071155;28;20043;-46
2023/04/06 10:59:23;;;;;;;11.13;8.80;;;14.10;39.60;;;;;;5092366;28;20059;-45
2023/04/06 11:01:52;;;;;;;10.32;8.98;;;14.10;40.90;;;;;;5087566;28;20111;-48
2023/04/06 11:04:25;;;;;;;9.95;8.75;;;14.00;40.30;;;;;;5094217;28;20035;-45
2023/04/06 11:06:50;;;;;;;14.73;10.48;;;13.90;42.20;;;;;;5094792;28;20036;-48
2023/04/06 11:09:36;;;;;;;12.18;8.82;;;13.90;41.70;;;;;;5092695;28;20515;-47
2023/04/06 11:12:04;;;;;;;11.45;9.30;;;14.00;41.00;;;;;;5080148;28;20173;-47
2023/04/06 11:14:30;;;;;;;10.98;8.85;;;13.90;41.50;;;;;;5093829;28;20031;-45
2023/04/06 11:16:58;;;;;;;10.85;9.02;;;13.90;41.40;;;;;;5092146;28;20020;-45
2023/04/06 11:19:26;;;;;;;13.32;9.63;;;13.90;42.60;;;;;;5090108;28;20028;-44
2023/04/06 11:21:54;;;;;;;12.52;9.45;;;13.90;42.50;;;;;;5094726;28;20012;-45
2023/04/06 11:24:25;;;;;;;11.67;9.67;;;13.80;40.40;;;;;;5095034;28;20036;-47
2023/04/06 11:27:00;;;;;;;12.48;9.20;;;13.80;39.60;;;;;;5074622;28;20636;-51
2023/04/06 11:29:31;;;;;;;11.57;9.13;;;13.90;41.30;;;;;;5094194;28;20517;-47
2023/04/06 11:32:11;;;;;;;11.85;10.00;;;14.00;42.70;;;;;;5076106;28;20032;-44
2023/04/06 11:34:40;;;;;;;12.40;9.68;;;14.00;42.40;;;;;;5083171;28;20375;-47
2023/04/06 11:37:14;;;;;;;11.88;10.25;;;13.90;42.30;;;;;;5056942;28;20106;-45
2023/04/06 11:39:56;;;;;;;13.23;10.45;;;14.20;44.30;;;;;;5077043;28;20433;-45
2023/04/06 11:42:37;;;;;;;11.00;9.85;;;14.20;41.30;;;;;;5076725;28;20048;-45
2023/04/06 11:45:08;;;;;;;13.00;10.57;;;14.00;42.50;;;;;;5059870;28;20127;-48
2023/04/06 11:47:37;;;;;;;10.75;9.35;;;13.90;42.10;;;;;;5090475;28;20032;-47
2023/04/06 11:50:17;;;;;;;11.38;9.88;;;14.20;43.30;;;;;;5063264;28;20123;-51
2023/04/06 11:52:45;;;;;;;11.20;10.07;;;14.40;41.90;;;;;;5060477;28;20554;-47
2023/04/06 11:55:16;;;;;;;13.07;10.55;;;14.30;39.50;;;;;;5094526;28;20043;-46
2023/04/06 11:57:42;;;;;;;11.35;10.23;;;14.20;41.10;;;;;;5076347;28;20038;-48
2023/04/06 12:00:11;;;;;;;14.32;9.82;;;14.10;40.30;;;;;;5091006;28;20073;-52
2023/04/06 12:02:47;;;;;;;10.63;9.32;;;14.00;40.60;;;;;;5074732;28;20059;-49
2023/04/06 12:05:15;;;;;;;12.27;10.82;;;14.00;41.80;;;;;;5060233;28;20098;-47
2023/04/06 12:07:40;;;;;;;13.18;10.45;;;13.90;40.80;;;;;;5084789;28;20477;-49
2023/04/06 12:10:08;;;;;;;12.38;10.55;;;13.90;40.10;;;;;;5093556;28;20048;-47
2023/04/06 12:12:38;;;;;;;13.38;10.93;;;13.80;41.40;;;;;;5093655;28;20027;-49
2023/04/06 12:15:05;;;;;;;12.48;10.75;;;13.90;41.70;;;;;;5059541;28;20020;-45
2023/04/06 12:17:31;;;;;;;11.85;9.68;;;13.90;41.00;;;;;;5093891;28;20028;-47
2023/04/06 12:19:58;;;;;;;12.15;10.43;;;13.90;40.80;;;;;;5090604;28;20027;-45
2023/04/06 12:22:26;;;;;;;12.50;10.48;;;13.80;41.90;;;;;;5087249;28;20032;-45
2023/04/06 12:24:51;;;;;;;13.43;11.30;;;13.80;41.50;;;;;;5084260;28;20067;-50
2023/04/06 12:27:20;;;;;;;14.60;11.02;;;14.00;41.50;;;;;;5064805;28;20422;-50
2023/04/06 12:29:48;;;;;;;15.05;10.77;;;14.10;40.10;;;;;;5093529;28;20365;-47
2023/04/06 12:32:15;;;;;;;13.63;10.35;;;14.10;40.00;;;;;;5072044;28;20040;-48
2023/04/06 12:34:42;;;;;;;13.93;10.20;;;14.10;38.50;;;;;;5095123;28;20024;-45
2023/04/06 12:37:12;;;;;;;16.65;11.05;;;14.10;37.90;;;;;;5087458;28;20036;-48
2023/04/06 12:39:37;;;;;;;11.45;10.23;;;14.00;37.90;;;;;;5087055;28;20024;-48
2023/04/06 12:42:04;;;;;;;12.98;9.48;;;14.10;40.10;;;;;;5074525;28;20093;-46
2023/04/06 12:44:31;;;;;;;11.65;10.23;;;13.90;38.70;;;;;;5062293;28;20540;-49
2023/04/06 12:47:04;;;;;;;10.85;9.68;;;13.90;38.30;;;;;;5073620;28;20043;-50